sensor_id;sensor_type;location;lat;lon;timestamp;P1;durP1;ratioP1;P2;durP2;ratioP2
56810;SDS011;42691;47.234;27.494;2022-11-09T00:01:39;19.65;;;14.35;;
56810;SDS011;42691;47.234;27.494;2022-11-09T00:04:05;24.00;;;15.80;;
56810;SDS011;42691;47.234;27.494;2022-11-09T00:06:31;30.10;;;14.18;;
56810;SDS011;42691;47.234;27.494;2022-11-09T00:08:57;18.55;;;12.70;;
56810;SDS011;42691;47.234;27.494;2022-11-09T00:11:24;24.98;;;13.80;;
56810;SDS011;42691;47.234;27.494;2022-11-09T00:13:49;22.70;;;15.05;;
56810;SDS011;42691;47.234;27.494;2022-11-09T00:16:17;29.02;;;14.82;;
56810;SDS011;42691;47.234;27.494;2022-11-09T00:18:43;18.48;;;13.60;;
56810;SDS011;42691;47.234;27.494;2022-11-09T00:21:14;17.30;;;14.05;;
56810;SDS011;42691;47.234;27.494;2022-11-09T00:23:43;21.27;;;14.95;;
56810;SDS011;42691;47.234;27.494;2022-11-09T00:26:10;25.48;;;16.45;;
56810;SDS011;42691;47.234;27.494;2022-11-09T00:28:37;21.02;;;16.45;;
56810;SDS011;42691;47.234;27.494;2022-11-09T00:31:06;35.22;;;20.08;;
56810;SDS011;42691;47.234;27.494;2022-11-09T00:33:34;27.65;;;19.13;;
56810;SDS011;42691;47.234;27.494;2022-11-09T00:36:03;21.65;;;19.10;;
56810;SDS011;42691;47.234;27.494;2022-11-09T00:38:31;22.25;;;19.67;;
56810;SDS011;42691;47.234;27.494;2022-11-09T00:41:01;25.20;;;19.10;;
56810;SDS011;42691;47.234;27.494;2022-11-09T00:43:27;20.45;;;16.58;;
56810;SDS011;42691;47.234;27.494;2022-11-09T00:45:52;26.30;;;17.75;;
56810;SDS011;42691;47.234;27.494;2022-11-09T00:48:17;34.63;;;16.90;;
56810;SDS011;42691;47.234;27.494;2022-11-09T00:50:47;25.15;;;17.85;;
56810;SDS011;42691;47.234;27.494;2022-11-09T00:53:14;23.63;;;16.42;;
56810;SDS011;42691;47.234;27.494;2022-11-09T00:55:39;20.17;;;16.85;;
56810;SDS011;42691;47.234;27.494;2022-11-09T00:58:04;24.88;;;16.35;;
56810;SDS011;42691;47.234;27.494;2022-11-09T01:00:30;22.67;;;14.45;;
56810;SDS011;42691;47.234;27.494;2022-11-09T01:02:55;23.67;;;12.05;;
56810;SDS011;42691;47.234;27.494;2022-11-09T01:05:21;27.42;;;17.20;;
56810;SDS011;42691;47.234;27.494;2022-11-09T01:07:46;21.38;;;14.73;;
56810;SDS011;42691;47.234;27.494;2022-11-09T01:10:11;20.35;;;16.88;;
56810;SDS011;42691;47.234;27.494;2022-11-09T01:12:37;21.17;;;17.20;;
56810;SDS011;42691;47.234;27.494;2022-11-09T01:15:02;24.20;;;16.90;;
56810;SDS011;42691;47.234;27.494;2022-11-09T01:17:28;21.08;;;14.85;;
56810;SDS011;42691;47.234;27.494;2022-11-09T01:19:54;20.52;;;14.35;;
56810;SDS011;42691;47.234;27.494;2022-11-09T01:22:19;26.23;;;15.10;;
56810;SDS011;42691;47.234;27.494;2022-11-09T01:24:44;23.98;;;16.33;;
56810;SDS011;42691;47.234;27.494;2022-11-09T01:27:10;24.45;;;17.33;;
56810;SDS011;42691;47.234;27.494;2022-11-09T01:29:35;27.45;;;15.18;;
56810;SDS011;42691;47.234;27.494;2022-11-09T01:32:01;17.73;;;13.57;;
56810;SDS011;42691;47.234;27.494;2022-11-09T01:34:27;19.92;;;14.10;;
56810;SDS011;42691;47.234;27.494;2022-11-09T01:36:53;16.13;;;12.93;;
56810;SDS011;42691;47.234;27.494;2022-11-09T01:39:19;17.67;;;14.68;;
56810;SDS011;42691;47.234;27.494;2022-11-09T01:41:44;24.30;;;14.15;;
56810;SDS011;42691;47.234;27.494;2022-11-09T01:46:38;24.10;;;13.45;;
56810;SDS011;42691;47.234;27.494;2022-11-09T01:51:53;19.05;;;12.40;;
56810;SDS011;42691;47.234;27.494;2022-11-09T01:54:25;18.63;;;12.43;;
56810;SDS011;42691;47.234;27.494;2022-11-09T01:56:55;19.85;;;12.18;;
56810;SDS011;42691;47.234;27.494;2022-11-09T01:59:26;26.23;;;12.27;;
56810;SDS011;42691;47.234;27.494;2022-11-09T02:01:55;14.57;;;11.38;;
56810;SDS011;42691;47.234;27.494;2022-11-09T02:04:26;27.10;;;14.13;;
56810;SDS011;42691;47.234;27.494;2022-11-09T02:06:59;17.02;;;12.85;;
56810;SDS011;42691;47.234;27.494;2022-11-09T02:12:05;23.60;;;14.70;;
56810;SDS011;42691;47.234;27.494;2022-11-09T02:14:32;16.58;;;11.38;;
56810;SDS011;42691;47.234;27.494;2022-11-09T02:16:59;17.83;;;13.05;;
56810;SDS011;42691;47.234;27.494;2022-11-09T02:19:25;22.63;;;14.35;;
56810;SDS011;42691;47.234;27.494;2022-11-09T02:21:50;16.73;;;14.02;;
56810;SDS011;42691;47.234;27.494;2022-11-09T02:24:16;21.60;;;13.90;;
56810;SDS011;42691;47.234;27.494;2022-11-09T02:26:44;16.63;;;11.35;;
56810;SDS011;42691;47.234;27.494;2022-11-09T02:29:15;20.67;;;13.10;;
56810;SDS011;42691;47.234;27.494;2022-11-09T02:31:45;20.73;;;11.98;;
56810;SDS011;42691;47.234;27.494;2022-11-09T02:34:18;17.02;;;12.65;;
56810;SDS011;42691;47.234;27.494;2022-11-09T02:36:44;15.98;;;12.90;;
56810;SDS011;42691;47.234;27.494;2022-11-09T02:39:10;22.80;;;14.07;;
56810;SDS011;42691;47.234;27.494;2022-11-09T02:41:49;25.33;;;16.52;;
56810;SDS011;42691;47.234;27.494;2022-11-09T02:44:17;19.08;;;12.93;;
56810;SDS011;42691;47.234;27.494;2022-11-09T02:46:43;19.63;;;14.75;;
56810;SDS011;42691;47.234;27.494;2022-11-09T02:49:09;20.80;;;12.73;;
56810;SDS011;42691;47.234;27.494;2022-11-09T02:51:35;22.35;;;12.57;;
56810;SDS011;42691;47.234;27.494;2022-11-09T02:54:00;15.50;;;11.40;;
56810;SDS011;42691;47.234;27.494;2022-11-09T02:56:26;20.83;;;16.02;;
56810;SDS011;42691;47.234;27.494;2022-11-09T02:58:51;17.25;;;13.38;;
56810;SDS011;42691;47.234;27.494;2022-11-09T03:01:17;16.10;;;12.68;;
56810;SDS011;42691;47.234;27.494;2022-11-09T03:03:42;20.63;;;13.95;;
56810;SDS011;42691;47.234;27.494;2022-11-09T03:06:08;22.40;;;12.75;;
56810;SDS011;42691;47.234;27.494;2022-11-09T03:08:33;23.75;;;14.57;;
56810;SDS011;42691;47.234;27.494;2022-11-09T03:10:59;39.65;;;14.77;;
56810;SDS011;42691;47.234;27.494;2022-11-09T03:13:25;17.70;;;13.68;;
56810;SDS011;42691;47.234;27.494;2022-11-09T03:15:50;24.25;;;13.60;;
56810;SDS011;42691;47.234;27.494;2022-11-09T03:18:16;21.38;;;13.48;;
56810;SDS011;42691;47.234;27.494;2022-11-09T03:20:41;15.18;;;11.85;;
56810;SDS011;42691;47.234;27.494;2022-11-09T03:23:08;21.48;;;13.65;;
56810;SDS011;42691;47.234;27.494;2022-11-09T03:25:35;16.60;;;11.00;;
56810;SDS011;42691;47.234;27.494;2022-11-09T03:28:02;18.73;;;15.48;;
56810;SDS011;42691;47.234;27.494;2022-11-09T03:30:29;15.98;;;11.38;;
56810;SDS011;42691;47.234;27.494;2022-11-09T03:33:04;23.83;;;16.90;;
56810;SDS011;42691;47.234;27.494;2022-11-09T03:35:34;23.00;;;12.45;;
56810;SDS011;42691;47.234;27.494;2022-11-09T03:38:01;29.85;;;14.07;;
56810;SDS011;42691;47.234;27.494;2022-11-09T03:40:27;23.95;;;14.02;;
56810;SDS011;42691;47.234;27.494;2022-11-09T03:42:52;25.75;;;12.60;;
56810;SDS011;42691;47.234;27.494;2022-11-09T03:45:18;20.48;;;12.50;;
56810;SDS011;42691;47.234;27.494;2022-11-09T03:47:43;24.10;;;15.57;;
56810;SDS011;42691;47.234;27.494;2022-11-09T03:50:10;27.30;;;15.57;;
56810;SDS011;42691;47.234;27.494;2022-11-09T03:52:37;18.88;;;11.63;;
56810;SDS011;42691;47.234;27.494;2022-11-09T03:55:03;21.88;;;14.63;;
56810;SDS011;42691;47.234;27.494;2022-11-09T03:57:30;24.25;;;15.23;;
56810;SDS011;42691;47.234;27.494;2022-11-09T03:59:55;27.10;;;14.15;;
56810;SDS011;42691;47.234;27.494;2022-11-09T04:02:21;29.70;;;12.98;;
56810;SDS011;42691;47.234;27.494;2022-11-09T04:04:46;26.33;;;13.98;;
56810;SDS011;42691;47.234;27.494;2022-11-09T04:07:12;20.90;;;13.38;;
56810;SDS011;42691;47.234;27.494;2022-11-09T04:09:37;30.63;;;14.25;;
56810;SDS011;42691;47.234;27.494;2022-11-09T04:12:03;18.50;;;14.15;;
56810;SDS011;42691;47.234;27.494;2022-11-09T04:14:29;20.73;;;15.05;;
56810;SDS011;42691;47.234;27.494;2022-11-09T04:16:54;21.25;;;16.67;;
56810;SDS011;42691;47.234;27.494;2022-11-09T04:19:20;22.10;;;15.65;;
56810;SDS011;42691;47.234;27.494;2022-11-09T04:21:45;18.83;;;14.90;;
56810;SDS011;42691;47.234;27.494;2022-11-09T04:24:10;24.98;;;14.18;;
56810;SDS011;42691;47.234;27.494;2022-11-09T04:26:36;20.42;;;13.80;;
56810;SDS011;42691;47.234;27.494;2022-11-09T04:29:01;17.98;;;12.95;;
56810;SDS011;42691;47.234;27.494;2022-11-09T04:31:27;14.27;;;12.32;;
56810;SDS011;42691;47.234;27.494;2022-11-09T04:33:53;18.02;;;12.55;;
56810;SDS011;42691;47.234;27.494;2022-11-09T04:36:18;24.20;;;15.25;;
56810;SDS011;42691;47.234;27.494;2022-11-09T04:38:44;20.85;;;13.13;;
56810;SDS011;42691;47.234;27.494;2022-11-09T04:41:09;25.60;;;13.90;;
56810;SDS011;42691;47.234;27.494;2022-11-09T04:43:34;22.38;;;15.75;;
56810;SDS011;42691;47.234;27.494;2022-11-09T04:46:00;19.92;;;12.85;;
56810;SDS011;42691;47.234;27.494;2022-11-09T04:48:27;20.90;;;14.52;;
56810;SDS011;42691;47.234;27.494;2022-11-09T04:50:57;19.15;;;13.02;;
56810;SDS011;42691;47.234;27.494;2022-11-09T04:53:26;22.20;;;16.48;;
56810;SDS011;42691;47.234;27.494;2022-11-09T04:55:52;18.05;;;12.32;;
56810;SDS011;42691;47.234;27.494;2022-11-09T04:58:17;19.05;;;11.48;;
56810;SDS011;42691;47.234;27.494;2022-11-09T05:00:43;18.50;;;15.50;;
56810;SDS011;42691;47.234;27.494;2022-11-09T05:03:08;21.35;;;19.08;;
56810;SDS011;42691;47.234;27.494;2022-11-09T05:05:34;16.10;;;14.13;;
56810;SDS011;42691;47.234;27.494;2022-11-09T05:08:01;22.45;;;14.57;;
56810;SDS011;42691;47.234;27.494;2022-11-09T05:10:27;18.70;;;14.75;;
56810;SDS011;42691;47.234;27.494;2022-11-09T05:12:56;31.60;;;15.18;;
56810;SDS011;42691;47.234;27.494;2022-11-09T05:15:26;26.30;;;13.63;;
56810;SDS011;42691;47.234;27.494;2022-11-09T05:17:52;22.63;;;13.85;;
56810;SDS011;42691;47.234;27.494;2022-11-09T05:20:18;19.85;;;13.10;;
56810;SDS011;42691;47.234;27.494;2022-11-09T05:22:43;24.67;;;15.65;;
56810;SDS011;42691;47.234;27.494;2022-11-09T05:25:27;29.02;;;16.10;;
56810;SDS011;42691;47.234;27.494;2022-11-09T05:27:53;21.65;;;15.75;;
56810;SDS011;42691;47.234;27.494;2022-11-09T05:30:18;22.88;;;13.70;;
56810;SDS011;42691;47.234;27.494;2022-11-09T05:32:44;22.63;;;16.00;;
56810;SDS011;42691;47.234;27.494;2022-11-09T05:35:10;22.88;;;15.75;;
56810;SDS011;42691;47.234;27.494;2022-11-09T05:37:36;25.67;;;15.13;;
56810;SDS011;42691;47.234;27.494;2022-11-09T05:40:02;23.77;;;16.63;;
56810;SDS011;42691;47.234;27.494;2022-11-09T05:42:28;18.15;;;16.10;;
56810;SDS011;42691;47.234;27.494;2022-11-09T05:44:54;18.02;;;15.35;;
56810;SDS011;42691;47.234;27.494;2022-11-09T05:47:19;22.60;;;16.83;;
56810;SDS011;42691;47.234;27.494;2022-11-09T05:49:45;21.73;;;17.77;;
56810;SDS011;42691;47.234;27.494;2022-11-09T05:52:10;20.13;;;14.18;;
56810;SDS011;42691;47.234;27.494;2022-11-09T05:54:36;21.08;;;16.25;;
56810;SDS011;42691;47.234;27.494;2022-11-09T05:57:02;24.27;;;15.98;;
56810;SDS011;42691;47.234;27.494;2022-11-09T05:59:27;26.85;;;17.90;;
56810;SDS011;42691;47.234;27.494;2022-11-09T06:01:53;33.03;;;14.90;;
56810;SDS011;42691;47.234;27.494;2022-11-09T06:04:18;21.70;;;16.25;;
56810;SDS011;42691;47.234;27.494;2022-11-09T06:06:44;22.92;;;13.73;;
56810;SDS011;42691;47.234;27.494;2022-11-09T06:09:10;35.50;;;16.02;;
56810;SDS011;42691;47.234;27.494;2022-11-09T06:11:35;41.55;;;19.67;;
56810;SDS011;42691;47.234;27.494;2022-11-09T06:14:01;17.60;;;13.15;;
56810;SDS011;42691;47.234;27.494;2022-11-09T06:16:26;26.65;;;17.05;;
56810;SDS011;42691;47.234;27.494;2022-11-09T06:18:52;30.08;;;21.80;;
56810;SDS011;42691;47.234;27.494;2022-11-09T06:21:17;39.08;;;23.88;;
56810;SDS011;42691;47.234;27.494;2022-11-09T06:23:43;27.58;;;20.55;;
56810;SDS011;42691;47.234;27.494;2022-11-09T06:26:09;32.50;;;21.50;;
56810;SDS011;42691;47.234;27.494;2022-11-09T06:28:36;30.75;;;21.52;;
56810;SDS011;42691;47.234;27.494;2022-11-09T06:31:02;31.63;;;20.30;;
56810;SDS011;42691;47.234;27.494;2022-11-09T06:33:30;23.70;;;18.70;;
56810;SDS011;42691;47.234;27.494;2022-11-09T06:35:57;28.27;;;20.50;;
56810;SDS011;42691;47.234;27.494;2022-11-09T06:38:23;31.50;;;17.35;;
56810;SDS011;42691;47.234;27.494;2022-11-09T06:40:50;24.17;;;16.95;;
56810;SDS011;42691;47.234;27.494;2022-11-09T06:43:17;29.25;;;19.60;;
56810;SDS011;42691;47.234;27.494;2022-11-09T06:45:43;48.88;;;20.27;;
56810;SDS011;42691;47.234;27.494;2022-11-09T06:48:08;37.17;;;22.88;;
56810;SDS011;42691;47.234;27.494;2022-11-09T06:50:35;38.10;;;22.70;;
56810;SDS011;42691;47.234;27.494;2022-11-09T06:53:01;35.10;;;21.02;;
56810;SDS011;42691;47.234;27.494;2022-11-09T06:55:29;23.90;;;20.17;;
56810;SDS011;42691;47.234;27.494;2022-11-09T06:57:56;23.45;;;19.65;;
56810;SDS011;42691;47.234;27.494;2022-11-09T07:00:23;30.45;;;20.23;;
56810;SDS011;42691;47.234;27.494;2022-11-09T07:02:50;24.17;;;17.42;;
56810;SDS011;42691;47.234;27.494;2022-11-09T07:05:16;25.95;;;20.35;;
56810;SDS011;42691;47.234;27.494;2022-11-09T07:07:42;26.63;;;19.33;;
56810;SDS011;42691;47.234;27.494;2022-11-09T07:10:07;37.45;;;20.08;;
56810;SDS011;42691;47.234;27.494;2022-11-09T07:12:33;27.58;;;16.73;;
56810;SDS011;42691;47.234;27.494;2022-11-09T07:14:59;39.38;;;19.55;;
56810;SDS011;42691;47.234;27.494;2022-11-09T07:17:25;29.35;;;19.83;;
56810;SDS011;42691;47.234;27.494;2022-11-09T07:19:54;22.92;;;16.63;;
56810;SDS011;42691;47.234;27.494;2022-11-09T07:22:19;23.05;;;18.38;;
56810;SDS011;42691;47.234;27.494;2022-11-09T07:24:45;24.80;;;17.15;;
56810;SDS011;42691;47.234;27.494;2022-11-09T07:27:10;25.33;;;13.48;;
56810;SDS011;42691;47.234;27.494;2022-11-09T07:29:36;29.05;;;17.35;;
56810;SDS011;42691;47.234;27.494;2022-11-09T07:32:01;21.42;;;15.75;;
56810;SDS011;42691;47.234;27.494;2022-11-09T07:34:26;27.02;;;16.27;;
56810;SDS011;42691;47.234;27.494;2022-11-09T07:36:52;35.97;;;14.18;;
56810;SDS011;42691;47.234;27.494;2022-11-09T07:39:18;21.38;;;13.50;;
56810;SDS011;42691;47.234;27.494;2022-11-09T07:41:45;22.15;;;11.88;;
56810;SDS011;42691;47.234;27.494;2022-11-09T07:44:12;16.75;;;11.13;;
56810;SDS011;42691;47.234;27.494;2022-11-09T07:46:42;17.45;;;11.43;;
56810;SDS011;42691;47.234;27.494;2022-11-09T07:49:08;21.40;;;15.35;;
56810;SDS011;42691;47.234;27.494;2022-11-09T07:51:33;26.65;;;18.27;;
56810;SDS011;42691;47.234;27.494;2022-11-09T07:53:59;23.85;;;15.20;;
56810;SDS011;42691;47.234;27.494;2022-11-09T07:56:25;29.00;;;16.20;;
56810;SDS011;42691;47.234;27.494;2022-11-09T07:58:50;21.08;;;14.18;;
56810;SDS011;42691;47.234;27.494;2022-11-09T08:01:16;17.95;;;13.35;;
56810;SDS011;42691;47.234;27.494;2022-11-09T08:03:41;40.63;;;19.38;;
56810;SDS011;42691;47.234;27.494;2022-11-09T08:06:06;28.17;;;19.50;;
56810;SDS011;42691;47.234;27.494;2022-11-09T08:08:32;29.73;;;19.13;;
56810;SDS011;42691;47.234;27.494;2022-11-09T08:10:57;29.45;;;21.15;;
56810;SDS011;42691;47.234;27.494;2022-11-09T08:13:23;35.53;;;23.83;;
56810;SDS011;42691;47.234;27.494;2022-11-09T08:15:49;32.30;;;21.35;;
56810;SDS011;42691;47.234;27.494;2022-11-09T08:18:18;23.73;;;17.80;;
56810;SDS011;42691;47.234;27.494;2022-11-09T08:20:45;30.73;;;18.17;;
56810;SDS011;42691;47.234;27.494;2022-11-09T08:23:11;29.38;;;19.13;;
56810;SDS011;42691;47.234;27.494;2022-11-09T08:25:38;22.95;;;19.50;;
56810;SDS011;42691;47.234;27.494;2022-11-09T08:28:03;23.55;;;14.93;;
56810;SDS011;42691;47.234;27.494;2022-11-09T08:30:29;26.65;;;17.88;;
56810;SDS011;42691;47.234;27.494;2022-11-09T08:32:56;32.38;;;21.77;;
56810;SDS011;42691;47.234;27.494;2022-11-09T08:35:23;30.25;;;20.35;;
56810;SDS011;42691;47.234;27.494;2022-11-09T08:37:50;38.90;;;24.10;;
56810;SDS011;42691;47.234;27.494;2022-11-09T08:40:17;34.33;;;25.45;;
56810;SDS011;42691;47.234;27.494;2022-11-09T08:42:44;24.70;;;20.50;;
56810;SDS011;42691;47.234;27.494;2022-11-09T08:45:10;27.13;;;19.63;;
56810;SDS011;42691;47.234;27.494;2022-11-09T08:47:36;30.17;;;20.15;;
56810;SDS011;42691;47.234;27.494;2022-11-09T08:50:02;23.73;;;17.25;;
56810;SDS011;42691;47.234;27.494;2022-11-09T08:52:28;19.13;;;13.32;;
56810;SDS011;42691;47.234;27.494;2022-11-09T08:54:54;18.67;;;12.23;;
56810;SDS011;42691;47.234;27.494;2022-11-09T08:57:20;15.60;;;11.52;;
56810;SDS011;42691;47.234;27.494;2022-11-09T08:59:45;18.98;;;12.40;;
56810;SDS011;42691;47.234;27.494;2022-11-09T09:02:11;17.98;;;12.57;;
56810;SDS011;42691;47.234;27.494;2022-11-09T09:04:37;16.67;;;12.52;;
56810;SDS011;42691;47.234;27.494;2022-11-09T09:07:03;22.30;;;15.88;;
56810;SDS011;42691;47.234;27.494;2022-11-09T09:09:29;22.65;;;15.40;;
56810;SDS011;42691;47.234;27.494;2022-11-09T09:11:54;19.88;;;12.13;;
56810;SDS011;42691;47.234;27.494;2022-11-09T09:14:20;18.95;;;13.45;;
56810;SDS011;42691;47.234;27.494;2022-11-09T09:16:46;15.55;;;10.80;;
56810;SDS011;42691;47.234;27.494;2022-11-09T09:19:11;14.52;;;10.30;;
56810;SDS011;42691;47.234;27.494;2022-11-09T09:21:37;13.05;;;9.23;;
56810;SDS011;42691;47.234;27.494;2022-11-09T09:24:02;18.23;;;10.60;;
56810;SDS011;42691;47.234;27.494;2022-11-09T09:26:28;19.13;;;10.52;;
56810;SDS011;42691;47.234;27.494;2022-11-09T09:28:53;23.13;;;11.10;;
56810;SDS011;42691;47.234;27.494;2022-11-09T09:31:19;22.38;;;13.43;;
56810;SDS011;42691;47.234;27.494;2022-11-09T09:33:44;19.58;;;12.57;;
56810;SDS011;42691;47.234;27.494;2022-11-09T09:36:18;19.48;;;12.38;;
56810;SDS011;42691;47.234;27.494;2022-11-09T09:38:45;25.88;;;12.20;;
56810;SDS011;42691;47.234;27.494;2022-11-09T09:41:26;24.13;;;12.60;;
56810;SDS011;42691;47.234;27.494;2022-11-09T09:44:01;20.58;;;12.48;;
56810;SDS011;42691;47.234;27.494;2022-11-09T09:46:46;28.27;;;14.50;;
56810;SDS011;42691;47.234;27.494;2022-11-09T09:49:25;17.90;;;11.50;;
56810;SDS011;42691;47.234;27.494;2022-11-09T09:52:04;26.35;;;12.13;;
56810;SDS011;42691;47.234;27.494;2022-11-09T09:54:39;20.80;;;14.50;;
56810;SDS011;42691;47.234;27.494;2022-11-09T09:57:18;19.02;;;14.15;;
56810;SDS011;42691;47.234;27.494;2022-11-09T09:59:49;24.67;;;18.02;;
56810;SDS011;42691;47.234;27.494;2022-11-09T10:04:44;29.42;;;12.18;;
56810;SDS011;42691;47.234;27.494;2022-11-09T10:07:31;23.50;;;14.00;;
56810;SDS011;42691;47.234;27.494;2022-11-09T10:27:23;22.85;;;15.35;;
56810;SDS011;42691;47.234;27.494;2022-11-09T10:29:51;21.92;;;13.82;;
56810;SDS011;42691;47.234;27.494;2022-11-09T10:32:19;23.08;;;15.10;;
56810;SDS011;42691;47.234;27.494;2022-11-09T10:35:00;25.60;;;17.08;;
56810;SDS011;42691;47.234;27.494;2022-11-09T10:37:36;23.83;;;15.75;;
56810;SDS011;42691;47.234;27.494;2022-11-09T10:40:30;26.58;;;15.38;;
56810;SDS011;42691;47.234;27.494;2022-11-09T10:43:03;28.83;;;16.38;;
56810;SDS011;42691;47.234;27.494;2022-11-09T10:45:35;21.20;;;14.55;;
56810;SDS011;42691;47.234;27.494;2022-11-09T10:48:06;24.08;;;17.40;;
56810;SDS011;42691;47.234;27.494;2022-11-09T10:53:17;18.27;;;12.35;;
56810;SDS011;42691;47.234;27.494;2022-11-09T10:58:21;18.17;;;14.45;;
56810;SDS011;42691;47.234;27.494;2022-11-09T11:01:14;25.88;;;17.58;;
56810;SDS011;42691;47.234;27.494;2022-11-09T11:03:53;22.77;;;14.55;;
56810;SDS011;42691;47.234;27.494;2022-11-09T11:09:28;19.10;;;13.48;;
56810;SDS011;42691;47.234;27.494;2022-11-09T11:11:35;20.77;;;14.43;;
56810;SDS011;42691;47.234;27.494;2022-11-09T11:14:09;20.08;;;13.77;;
56810;SDS011;42691;47.234;27.494;2022-11-09T11:16:35;20.73;;;13.20;;
56810;SDS011;42691;47.234;27.494;2022-11-09T11:19:02;22.92;;;15.88;;
56810;SDS011;42691;47.234;27.494;2022-11-09T11:21:28;21.42;;;14.95;;
56810;SDS011;42691;47.234;27.494;2022-11-09T11:24:16;23.00;;;18.08;;
56810;SDS011;42691;47.234;27.494;2022-11-09T11:26:44;22.08;;;14.73;;
56810;SDS011;42691;47.234;27.494;2022-11-09T11:31:45;30.35;;;17.08;;
56810;SDS011;42691;47.234;27.494;2022-11-09T11:34:12;26.65;;;16.42;;
56810;SDS011;42691;47.234;27.494;2022-11-09T11:36:42;26.63;;;18.52;;
56810;SDS011;42691;47.234;27.494;2022-11-09T11:39:33;25.70;;;18.10;;
56810;SDS011;42691;47.234;27.494;2022-11-09T11:42:14;32.85;;;16.60;;
56810;SDS011;42691;47.234;27.494;2022-11-09T11:56:11;21.90;;;14.77;;
56810;SDS011;42691;47.234;27.494;2022-11-09T12:07:16;22.80;;;15.27;;
56810;SDS011;42691;47.234;27.494;2022-11-09T12:17:52;26.65;;;16.67;;
56810;SDS011;42691;47.234;27.494;2022-11-09T12:37:11;19.00;;;14.38;;
56810;SDS011;42691;47.234;27.494;2022-11-09T12:47:59;26.98;;;17.13;;
56810;SDS011;42691;47.234;27.494;2022-11-09T12:50:46;25.88;;;16.83;;
56810;SDS011;42691;47.234;27.494;2022-11-09T12:53:12;21.23;;;14.98;;
56810;SDS011;42691;47.234;27.494;2022-11-09T12:55:42;30.38;;;18.63;;
56810;SDS011;42691;47.234;27.494;2022-11-09T12:58:26;21.17;;;18.45;;
56810;SDS011;42691;47.234;27.494;2022-11-09T13:00:55;21.98;;;14.77;;
56810;SDS011;42691;47.234;27.494;2022-11-09T13:03:34;27.70;;;16.15;;
56810;SDS011;42691;47.234;27.494;2022-11-09T13:08:33;32.20;;;16.98;;
56810;SDS011;42691;47.234;27.494;2022-11-09T13:11:08;30.25;;;16.58;;
56810;SDS011;42691;47.234;27.494;2022-11-09T13:13:43;24.70;;;15.68;;
56810;SDS011;42691;47.234;27.494;2022-11-09T13:23:47;20.08;;;16.70;;
56810;SDS011;42691;47.234;27.494;2022-11-09T13:43:05;28.65;;;18.50;;
56810;SDS011;42691;47.234;27.494;2022-11-09T13:50:54;27.35;;;19.15;;
56810;SDS011;42691;47.234;27.494;2022-11-09T13:53:29;27.88;;;17.02;;
56810;SDS011;42691;47.234;27.494;2022-11-09T13:55:55;29.30;;;18.10;;
56810;SDS011;42691;47.234;27.494;2022-11-09T13:58:26;25.67;;;18.80;;
56810;SDS011;42691;47.234;27.494;2022-11-09T14:00:58;26.08;;;18.75;;
56810;SDS011;42691;47.234;27.494;2022-11-09T14:03:25;34.13;;;22.35;;
56810;SDS011;42691;47.234;27.494;2022-11-09T14:05:59;26.85;;;20.83;;
56810;SDS011;42691;47.234;27.494;2022-11-09T14:22:50;36.05;;;23.85;;
56810;SDS011;42691;47.234;27.494;2022-11-09T14:25:17;29.23;;;22.02;;
56810;SDS011;42691;47.234;27.494;2022-11-09T14:27:45;35.65;;;22.38;;
56810;SDS011;42691;47.234;27.494;2022-11-09T14:30:13;44.33;;;31.55;;
56810;SDS011;42691;47.234;27.494;2022-11-09T14:32:45;37.63;;;22.95;;
56810;SDS011;42691;47.234;27.494;2022-11-09T14:35:20;36.38;;;25.95;;
56810;SDS011;42691;47.234;27.494;2022-11-09T14:37:46;35.85;;;27.08;;
56810;SDS011;42691;47.234;27.494;2022-11-09T14:40:16;26.75;;;21.60;;
56810;SDS011;42691;47.234;27.494;2022-11-09T14:42:47;27.73;;;22.00;;
56810;SDS011;42691;47.234;27.494;2022-11-09T14:45:15;28.13;;;18.27;;
56810;SDS011;42691;47.234;27.494;2022-11-09T14:47:43;31.52;;;22.38;;
56810;SDS011;42691;47.234;27.494;2022-11-09T14:50:14;31.67;;;23.17;;
56810;SDS011;42691;47.234;27.494;2022-11-09T14:52:43;36.88;;;21.58;;
56810;SDS011;42691;47.234;27.494;2022-11-09T14:55:12;25.40;;;19.77;;
56810;SDS011;42691;47.234;27.494;2022-11-09T14:57:40;32.67;;;20.80;;
56810;SDS011;42691;47.234;27.494;2022-11-09T15:00:20;39.03;;;24.55;;
56810;SDS011;42691;47.234;27.494;2022-11-09T15:02:50;37.92;;;25.90;;
56810;SDS011;42691;47.234;27.494;2022-11-09T15:07:59;34.47;;;25.88;;
56810;SDS011;42691;47.234;27.494;2022-11-09T15:10:26;32.17;;;23.50;;
56810;SDS011;42691;47.234;27.494;2022-11-09T15:12:55;38.63;;;28.27;;
56810;SDS011;42691;47.234;27.494;2022-11-09T15:15:26;37.30;;;29.92;;
56810;SDS011;42691;47.234;27.494;2022-11-09T15:17:53;43.17;;;26.60;;
56810;SDS011;42691;47.234;27.494;2022-11-09T15:30:42;32.03;;;26.00;;
56810;SDS011;42691;47.234;27.494;2022-11-09T15:38:34;38.63;;;24.40;;
56810;SDS011;42691;47.234;27.494;2022-11-09T15:41:07;41.15;;;26.88;;
56810;SDS011;42691;47.234;27.494;2022-11-09T15:43:35;33.50;;;23.48;;
56810;SDS011;42691;47.234;27.494;2022-11-09T15:46:01;29.48;;;21.10;;
56810;SDS011;42691;47.234;27.494;2022-11-09T15:48:27;30.75;;;25.40;;
56810;SDS011;42691;47.234;27.494;2022-11-09T15:50:53;34.38;;;22.73;;
56810;SDS011;42691;47.234;27.494;2022-11-09T15:53:18;41.25;;;20.27;;
56810;SDS011;42691;47.234;27.494;2022-11-09T15:55:44;33.55;;;23.98;;
56810;SDS011;42691;47.234;27.494;2022-11-09T15:58:11;35.70;;;22.40;;
56810;SDS011;42691;47.234;27.494;2022-11-09T16:00:38;29.83;;;21.92;;
56810;SDS011;42691;47.234;27.494;2022-11-09T16:03:04;32.80;;;22.98;;
56810;SDS011;42691;47.234;27.494;2022-11-09T16:05:29;33.65;;;22.98;;
56810;SDS011;42691;47.234;27.494;2022-11-09T16:07:55;43.75;;;25.73;;
56810;SDS011;42691;47.234;27.494;2022-11-09T16:10:20;29.65;;;21.33;;
56810;SDS011;42691;47.234;27.494;2022-11-09T16:12:51;42.38;;;25.67;;
56810;SDS011;42691;47.234;27.494;2022-11-09T16:15:21;33.80;;;24.98;;
56810;SDS011;42691;47.234;27.494;2022-11-09T16:17:47;39.50;;;24.52;;
56810;SDS011;42691;47.234;27.494;2022-11-09T16:20:15;33.25;;;26.30;;
56810;SDS011;42691;47.234;27.494;2022-11-09T16:22:41;45.92;;;27.27;;
56810;SDS011;42691;47.234;27.494;2022-11-09T16:25:07;31.42;;;23.77;;
56810;SDS011;42691;47.234;27.494;2022-11-09T16:27:34;29.58;;;25.65;;
56810;SDS011;42691;47.234;27.494;2022-11-09T16:29:59;31.60;;;27.95;;
56810;SDS011;42691;47.234;27.494;2022-11-09T16:32:25;45.97;;;27.13;;
56810;SDS011;42691;47.234;27.494;2022-11-09T16:34:51;35.60;;;27.23;;
56810;SDS011;42691;47.234;27.494;2022-11-09T16:37:16;26.88;;;21.40;;
56810;SDS011;42691;47.234;27.494;2022-11-09T16:39:42;37.75;;;23.77;;
56810;SDS011;42691;47.234;27.494;2022-11-09T16:42:08;40.35;;;27.80;;
56810;SDS011;42691;47.234;27.494;2022-11-09T16:44:36;38.20;;;23.83;;
56810;SDS011;42691;47.234;27.494;2022-11-09T16:47:04;28.90;;;24.95;;
56810;SDS011;42691;47.234;27.494;2022-11-09T16:49:33;32.17;;;28.45;;